createdAt,value
2018-10-03T00:00:30.802Z,8.67
2018-10-03T00:02:59.910Z,8.27
2018-10-03T00:05:29.144Z,9.30
2018-10-03T00:07:58.316Z,8.50
2018-10-03T00:10:28.343Z,8.50
2018-10-03T00:12:57.459Z,8.73
2018-10-03T00:15:26.547Z,8.00
2018-10-03T00:17:56.673Z,8.90
2018-10-03T00:20:25.718Z,8.33
2018-10-03T00:22:54.652Z,8.67
2018-10-03T00:25:23.715Z,8.30
2018-10-03T00:27:52.745Z,7.93
2018-10-03T00:30:21.809Z,9.90
2018-10-03T00:32:50.930Z,7.70
2018-10-03T00:35:19.996Z,7.80
2018-10-03T00:37:49.148Z,9.07
2018-10-03T00:40:18.173Z,7.37
2018-10-03T00:42:47.238Z,7.93
2018-10-03T00:45:16.254Z,7.40
2018-10-03T00:47:45.301Z,7.27
2018-10-03T00:50:14.367Z,7.07
2018-10-03T00:52:43.414Z,7.40
2018-10-03T00:55:12.421Z,7.90
2018-10-03T00:57:41.423Z,7.00
2018-10-03T01:00:10.369Z,8.47
2018-10-03T01:02:39.393Z,7.20
2018-10-03T01:05:08.441Z,7.50
2018-10-03T01:07:37.493Z,7.40
2018-10-03T01:10:06.503Z,8.13
2018-10-03T01:12:35.476Z,6.23
2018-10-03T01:15:04.454Z,8.17
2018-10-03T01:17:33.450Z,8.53
2018-10-03T01:20:02.558Z,6.77
2018-10-03T01:22:31.538Z,7.03
2018-10-03T01:25:00.601Z,7.20
2018-10-03T01:27:31.021Z,8.03
2018-10-03T01:30:00.793Z,7.90
2018-10-03T01:32:30.390Z,7.70
2018-10-03T01:34:59.604Z,6.87
2018-10-03T01:37:28.587Z,8.27
2018-10-03T01:39:57.642Z,7.97
2018-10-03T01:42:26.613Z,9.03
2018-10-03T01:44:55.720Z,8.50
2018-10-03T01:47:24.901Z,9.13
2018-10-03T01:49:53.830Z,8.87
2018-10-03T01:52:22.937Z,8.70
2018-10-03T01:54:51.964Z,9.50
2018-10-03T01:57:21.217Z,8.77
2018-10-03T01:59:50.521Z,9.40
2018-10-03T02:02:19.507Z,9.03
2018-10-03T02:04:48.428Z,9.80
2018-10-03T02:07:17.382Z,8.90
2018-10-03T02:09:46.490Z,9.37
2018-10-03T02:12:15.615Z,8.53
2018-10-03T02:14:44.622Z,10.10
2018-10-03T02:17:13.711Z,9.50
2018-10-03T02:19:42.757Z,10.03
2018-10-03T02:22:11.859Z,8.97
2018-10-03T02:24:41.094Z,9.27
2018-10-03T02:27:10.162Z,9.23
2018-10-03T02:29:39.063Z,9.40
2018-10-03T02:32:08.029Z,9.27
2018-10-03T02:34:37.106Z,9.53
2018-10-03T02:37:06.122Z,9.63
2018-10-03T02:39:35.106Z,10.00
2018-10-03T02:42:04.069Z,9.60
2018-10-03T02:44:33.034Z,11.70
2018-10-03T02:47:01.971Z,10.53
2018-10-03T02:49:31.190Z,10.33
2018-10-03T02:52:00.288Z,12.23
2018-10-03T02:54:29.541Z,10.00
2018-10-03T02:56:58.506Z,11.30
2018-10-03T02:59:27.629Z,12.00
2018-10-03T03:01:56.606Z,10.90
2018-10-03T03:04:25.685Z,11.13
2018-10-03T03:06:54.681Z,11.67
2018-10-03T03:09:23.836Z,10.50
2018-10-03T03:11:52.798Z,11.70
2018-10-03T03:14:21.754Z,12.43
2018-10-03T03:16:51.005Z,12.60
2018-10-03T03:19:20.179Z,13.13
2018-10-03T03:21:49.169Z,12.03
2018-10-03T03:24:18.166Z,11.90
2018-10-03T03:26:47.145Z,12.00
2018-10-03T03:29:16.434Z,11.53
2018-10-03T03:31:45.595Z,12.90
2018-10-03T03:34:14.579Z,12.73
2018-10-03T03:36:44.663Z,12.50
2018-10-03T03:39:14.766Z,13.50
2018-10-03T03:41:43.936Z,11.83
2018-10-03T03:44:12.914Z,12.67
2018-10-03T03:46:41.886Z,11.67
2018-10-03T03:49:10.870Z,12.00
2018-10-03T03:51:39.852Z,10.70
2018-10-03T03:54:08.810Z,12.00
2018-10-03T03:56:38.306Z,10.93
2018-10-03T03:59:07.410Z,9.77
2018-10-03T04:01:36.404Z,11.17
2018-10-03T04:04:05.536Z,10.40
2018-10-03T04:06:34.519Z,11.30
2018-10-03T04:09:04.818Z,10.57
2018-10-03T04:11:34.003Z,11.73
2018-10-03T04:14:03.074Z,9.67
2018-10-03T04:16:32.326Z,11.57
2018-10-03T04:19:01.412Z,11.13
2018-10-03T04:21:37.486Z,10.17
2018-10-03T04:24:07.614Z,10.83
2018-10-03T04:26:37.259Z,11.50
2018-10-03T04:29:06.381Z,10.90
2018-10-03T04:31:36.074Z,10.50
2018-10-03T04:34:05.802Z,10.70
2018-10-03T04:36:35.394Z,10.73
2018-10-03T04:39:06.330Z,9.87
2018-10-03T04:41:35.971Z,11.10
2018-10-03T04:44:05.126Z,10.20
2018-10-03T04:46:34.170Z,11.30
2018-10-03T04:49:03.346Z,11.27
2018-10-03T04:51:32.210Z,10.70
2018-10-03T04:54:01.190Z,10.60
2018-10-03T04:56:30.213Z,9.97
2018-10-03T04:58:59.352Z,10.03
2018-10-03T05:01:28.398Z,10.53
2018-10-03T05:03:57.352Z,9.00
2018-10-03T05:06:26.420Z,9.80
2018-10-03T05:08:55.469Z,8.93
2018-10-03T05:11:24.635Z,9.13
2018-10-03T05:13:53.539Z,8.47
2018-10-03T05:16:22.715Z,8.97
2018-10-03T05:18:51.759Z,9.03
2018-10-03T05:21:21.867Z,9.60
2018-10-03T05:23:50.891Z,9.97
2018-10-03T05:26:20.019Z,8.80
2018-10-03T05:28:49.114Z,9.37
2018-10-03T05:31:18.367Z,9.30
2018-10-03T05:33:47.455Z,8.37
2018-10-03T05:36:16.517Z,8.37
2018-10-03T05:38:45.555Z,8.37
2018-10-03T05:41:14.673Z,8.93
2018-10-03T05:43:43.804Z,8.90
2018-10-03T05:46:12.880Z,8.40
2018-10-03T05:48:42.402Z,8.83
2018-10-03T05:51:11.346Z,10.27
2018-10-03T05:53:40.485Z,7.93
2018-10-03T05:56:10.627Z,8.93
2018-10-03T05:58:39.655Z,8.10
2018-10-03T06:01:08.816Z,7.67
2018-10-03T06:03:37.935Z,7.53
2018-10-03T06:06:07.494Z,7.60
2018-10-03T06:08:36.777Z,7.97
2018-10-03T06:11:05.967Z,6.77
2018-10-03T06:13:35.065Z,8.40
2018-10-03T06:16:04.261Z,7.57
2018-10-03T06:18:33.845Z,7.03
2018-10-03T06:21:02.850Z,7.90
2018-10-03T06:23:31.960Z,7.83
2018-10-03T06:26:01.102Z,7.63
2018-10-03T06:28:30.134Z,7.03
2018-10-03T06:30:59.121Z,7.00
2018-10-03T06:33:28.440Z,6.53
2018-10-03T06:35:57.816Z,6.67
2018-10-03T06:38:26.914Z,6.83
2018-10-03T06:40:55.959Z,7.43
2018-10-03T06:43:25.028Z,7.63
2018-10-03T06:45:54.069Z,5.80
2018-10-03T06:48:23.222Z,5.80
2018-10-03T06:50:52.295Z,7.57
2018-10-03T06:53:21.237Z,6.10
2018-10-03T06:55:51.368Z,7.00
2018-10-03T06:58:20.485Z,6.73
2018-10-03T07:00:49.431Z,5.73
2018-10-03T07:03:18.390Z,6.43
2018-10-03T07:05:47.655Z,5.67
2018-10-03T07:08:16.788Z,5.77
2018-10-03T07:10:46.779Z,5.50
2018-10-03T07:13:15.933Z,6.33
2018-10-03T07:15:45.017Z,6.80
2018-10-03T07:18:14.140Z,5.40
2018-10-03T07:20:43.274Z,4.80
2018-10-03T07:23:12.358Z,4.90
2018-10-03T07:25:41.727Z,5.70
2018-10-03T07:28:10.950Z,5.80
2018-10-03T07:30:40.055Z,5.83
2018-10-03T07:33:09.109Z,5.30
2018-10-03T07:35:38.250Z,5.47
2018-10-03T07:38:07.278Z,6.50
2018-10-03T07:40:36.603Z,6.00
2018-10-03T07:43:05.568Z,5.47
2018-10-03T07:45:34.575Z,6.13
2018-10-03T07:48:03.763Z,5.40
2018-10-03T07:50:32.958Z,6.43
2018-10-03T07:53:02.059Z,5.60
2018-10-03T07:55:31.104Z,6.00
2018-10-03T07:58:00.122Z,6.07
2018-10-03T08:00:30.310Z,5.53
2018-10-03T08:02:59.940Z,7.77
2018-10-03T08:05:29.323Z,5.60
2018-10-03T08:07:59.105Z,6.63
2018-10-03T08:10:28.090Z,4.80
2018-10-03T08:12:57.092Z,5.03
2018-10-03T08:15:26.062Z,6.10
2018-10-03T08:17:55.050Z,5.87
2018-10-03T08:20:24.117Z,6.40
2018-10-03T08:22:53.193Z,5.10
2018-10-03T08:25:22.398Z,8.37
2018-10-03T08:27:51.390Z,5.47
2018-10-03T08:30:20.490Z,5.60
2018-10-03T08:32:49.744Z,6.53
2018-10-03T08:35:18.958Z,4.60
2018-10-03T08:37:47.963Z,5.67
2018-10-03T08:40:17.311Z,5.50
2018-10-03T08:42:46.361Z,5.53
2018-10-03T08:45:15.560Z,6.00
2018-10-03T08:47:44.461Z,5.33
2018-10-03T08:50:13.591Z,5.07
2018-10-03T08:52:42.531Z,5.90
2018-10-03T08:55:11.744Z,4.30
2018-10-03T08:57:41.141Z,4.87
2018-10-03T09:00:10.491Z,4.60
2018-10-03T09:02:39.775Z,5.70
2018-10-03T09:05:09.766Z,5.30
2018-10-03T09:07:38.923Z,6.23
2018-10-03T09:10:09.342Z,5.00
2018-10-03T09:12:38.330Z,5.37
2018-10-03T09:15:07.358Z,5.10
2018-10-03T09:17:36.324Z,5.23
2018-10-03T09:20:05.602Z,4.57
2018-10-03T09:22:34.614Z,5.43
2018-10-03T09:25:03.709Z,4.43
2018-10-03T09:27:32.667Z,3.97
2018-10-03T09:30:01.622Z,4.87
2018-10-03T09:32:30.574Z,3.90
2018-10-03T09:34:59.482Z,4.80
2018-10-03T09:37:28.546Z,5.03
2018-10-03T09:39:57.664Z,4.43
2018-10-03T09:42:26.622Z,5.07
2018-10-03T09:44:56.126Z,4.33
2018-10-03T09:47:25.430Z,4.87
2018-10-03T09:49:54.514Z,4.20
2018-10-03T09:52:23.623Z,6.23
2018-10-03T09:54:52.778Z,5.00
2018-10-03T09:57:21.843Z,4.30
2018-10-03T09:59:50.794Z,4.50
2018-10-03T10:02:19.967Z,4.67
2018-10-03T10:04:48.917Z,4.00
2018-10-03T10:07:19.084Z,4.40
2018-10-03T10:09:48.082Z,4.83
2018-10-03T10:12:17.198Z,4.07
2018-10-03T10:14:46.381Z,4.40
2018-10-03T10:17:15.290Z,4.40
2018-10-03T10:19:44.247Z,4.00
2018-10-03T10:22:13.217Z,5.03
2018-10-03T10:24:42.393Z,4.50
2018-10-03T10:27:11.462Z,4.30
2018-10-03T10:29:40.762Z,4.37
2018-10-03T10:32:09.889Z,4.07
2018-10-03T10:34:38.787Z,4.20
2018-10-03T10:37:08.091Z,4.33
2018-10-03T10:39:37.107Z,6.50
2018-10-03T10:42:06.219Z,4.27
2018-10-03T10:44:35.176Z,4.40
2018-10-03T10:47:04.102Z,4.97
2018-10-03T10:49:33.122Z,4.90
2018-10-03T10:52:02.172Z,4.27
2018-10-03T10:54:31.150Z,4.20
2018-10-03T10:57:00.150Z,4.40
2018-10-03T10:59:29.162Z,4.30
2018-10-03T11:01:58.155Z,4.07
2018-10-03T11:04:27.106Z,4.27
2018-10-03T11:06:56.229Z,4.90
2018-10-03T11:09:25.199Z,3.90
2018-10-03T11:11:54.174Z,5.40
2018-10-03T11:14:23.118Z,5.17
2018-10-03T11:16:52.165Z,3.77
2018-10-03T11:19:21.067Z,4.57
2018-10-03T11:21:50.011Z,4.30
2018-10-03T11:24:19.325Z,4.70
2018-10-03T11:26:48.230Z,4.37
2018-10-03T11:29:17.562Z,4.07
2018-10-03T11:31:46.708Z,3.80
2018-10-03T11:34:15.654Z,4.23
2018-10-03T11:36:44.605Z,3.87
2018-10-03T11:39:14.264Z,4.70
2018-10-03T11:41:43.338Z,4.90
2018-10-03T11:44:12.432Z,4.50
2018-10-03T11:46:41.607Z,4.40
2018-10-03T11:49:10.566Z,4.10
2018-10-03T11:51:39.701Z,4.30
2018-10-03T11:54:09.077Z,3.63
2018-10-03T11:56:38.158Z,4.30
2018-10-03T11:59:07.095Z,4.77
2018-10-03T12:01:36.175Z,4.30
2018-10-03T12:04:05.346Z,4.20
2018-10-03T12:06:34.445Z,3.73
2018-10-03T12:09:04.558Z,4.00
2018-10-03T12:11:33.593Z,5.00
2018-10-03T12:14:02.690Z,3.53
2018-10-03T12:16:31.715Z,4.00
2018-10-03T12:19:01.012Z,4.50
2018-10-03T12:21:30.004Z,4.60
2018-10-03T12:23:58.954Z,4.20
2018-10-03T12:26:28.158Z,4.67
2018-10-03T12:28:57.161Z,4.87
2018-10-03T12:31:26.348Z,4.20
2018-10-03T12:33:55.498Z,3.40
2018-10-03T12:36:24.475Z,4.47
2018-10-03T12:38:53.723Z,4.60
2018-10-03T12:41:22.800Z,4.77
2018-10-03T12:43:51.896Z,4.03
2018-10-03T12:46:21.071Z,4.13
2018-10-03T12:48:50.138Z,4.27
2018-10-03T12:51:19.130Z,3.57
2018-10-03T12:53:48.226Z,3.70
2018-10-03T12:56:17.324Z,4.60
2018-10-03T12:58:46.402Z,3.83
2018-10-03T13:01:15.388Z,4.00
2018-10-03T13:03:44.384Z,4.50
2018-10-03T13:06:13.448Z,4.77
2018-10-03T13:08:42.603Z,4.80
2018-10-03T13:11:12.014Z,4.70
2018-10-03T13:13:41.185Z,4.50
2018-10-03T13:16:10.335Z,4.30
2018-10-03T13:18:39.345Z,4.07
2018-10-03T13:21:08.788Z,3.83
2018-10-03T13:23:37.977Z,5.30
2018-10-03T13:26:07.394Z,4.33
2018-10-03T13:28:36.369Z,3.83
2018-10-03T13:31:05.740Z,3.77
2018-10-03T13:33:34.836Z,5.03
2018-10-03T13:36:03.917Z,3.33
2018-10-03T13:38:33.049Z,4.37
2018-10-03T13:41:02.229Z,5.43
2018-10-03T13:43:31.573Z,4.00
2018-10-03T13:46:00.622Z,4.23
2018-10-03T13:48:30.066Z,4.10
2018-10-03T13:50:59.108Z,4.07
2018-10-03T13:53:28.254Z,3.80
2018-10-03T13:55:58.402Z,4.07
2018-10-03T13:58:27.430Z,4.77
2018-10-03T14:00:56.430Z,4.30
2018-10-03T14:03:25.486Z,4.17
2018-10-03T14:05:54.623Z,4.77
2018-10-03T14:08:23.691Z,4.17
2018-10-03T14:10:52.799Z,4.93
2018-10-03T14:13:22.200Z,4.63
2018-10-03T14:15:51.602Z,4.40
2018-10-03T14:18:20.850Z,4.20
2018-10-03T14:20:50.139Z,4.10
2018-10-03T14:23:19.146Z,5.10
2018-10-03T14:25:48.208Z,4.90
2018-10-03T14:28:17.313Z,3.70
2018-10-03T14:30:46.354Z,5.50
2018-10-03T14:33:15.478Z,4.77
2018-10-03T14:35:44.610Z,4.10
2018-10-03T14:38:13.632Z,4.07
2018-10-03T14:40:42.870Z,3.73
2018-10-03T14:43:13.077Z,4.33
2018-10-03T14:45:42.172Z,4.90
2018-10-03T14:48:11.289Z,4.30
2018-10-03T14:50:40.336Z,4.90
2018-10-03T14:53:09.361Z,3.87
2018-10-03T14:55:38.553Z,4.83
2018-10-03T14:58:07.882Z,4.80
2018-10-03T15:00:36.818Z,4.30
2018-10-03T15:03:05.805Z,4.00
2018-10-03T15:05:34.862Z,3.50
2018-10-03T15:08:04.141Z,4.50
2018-10-03T15:10:33.258Z,4.13
2018-10-03T15:13:02.366Z,3.40
2018-10-03T15:15:31.567Z,3.90
2018-10-03T15:18:00.689Z,3.90
2018-10-03T15:20:29.770Z,4.70
2018-10-03T15:22:58.874Z,4.53
2018-10-03T15:25:27.951Z,5.90
2018-10-03T15:27:57.242Z,4.37
2018-10-03T15:30:26.169Z,3.97
2018-10-03T15:32:55.197Z,3.63
2018-10-03T15:35:24.371Z,4.47
2018-10-03T15:37:53.427Z,4.60
2018-10-03T15:40:22.762Z,6.43
2018-10-03T15:42:51.745Z,4.27
2018-10-03T15:45:20.816Z,4.00
2018-10-03T15:47:49.900Z,4.50
2018-10-03T15:50:18.989Z,4.80
2018-10-03T15:52:48.079Z,4.13
2018-10-03T15:55:17.187Z,4.47
2018-10-03T15:57:47.693Z,4.93
2018-10-03T16:00:16.746Z,4.13
2018-10-03T16:02:45.766Z,4.77
2018-10-03T16:05:15.245Z,4.03
2018-10-03T16:07:44.305Z,4.77
2018-10-03T16:10:13.353Z,4.10
2018-10-03T16:12:42.464Z,3.70
2018-10-03T16:15:11.801Z,3.97
2018-10-03T16:17:40.990Z,3.60
2018-10-03T16:20:09.901Z,4.03
2018-10-03T16:22:38.854Z,4.10
2018-10-03T16:25:07.852Z,4.03
2018-10-03T16:27:36.928Z,4.00
2018-10-03T16:30:06.069Z,3.73
2018-10-03T16:32:35.105Z,4.07
2018-10-03T16:35:04.103Z,4.00
2018-10-03T16:37:33.119Z,5.03
2018-10-03T16:40:02.203Z,3.50
2018-10-03T16:42:31.340Z,4.37
2018-10-03T16:45:00.356Z,3.63
2018-10-03T16:47:30.414Z,4.40
2018-10-03T16:50:01.552Z,4.30
2018-10-03T16:52:32.450Z,4.47
2018-10-03T16:55:01.499Z,4.50
2018-10-03T16:57:32.575Z,5.17
2018-10-03T17:00:01.633Z,5.60
2018-10-03T17:02:30.690Z,4.97
2018-10-03T17:04:59.802Z,4.47
2018-10-03T17:07:28.927Z,5.70
2018-10-03T17:09:58.006Z,4.10
2018-10-03T17:12:27.158Z,4.13
2018-10-03T17:14:56.258Z,3.63
2018-10-03T17:17:25.463Z,3.83
2018-10-03T17:19:56.977Z,4.70
2018-10-03T17:22:26.102Z,5.00
2018-10-03T17:24:56.265Z,3.80
2018-10-03T17:27:25.253Z,4.70
2018-10-03T17:29:54.444Z,3.97
2018-10-03T17:32:23.745Z,4.30
2018-10-03T17:34:52.890Z,4.50
2018-10-03T17:37:22.051Z,5.30
2018-10-03T17:39:51.133Z,6.53
2018-10-03T17:42:20.229Z,6.00
2018-10-03T17:44:49.393Z,5.00
2018-10-03T17:47:18.330Z,5.60
2018-10-03T17:49:47.378Z,4.80
2018-10-03T17:52:16.491Z,5.10
2018-10-03T17:54:45.553Z,4.67
2018-10-03T17:57:14.630Z,5.73
2018-10-03T17:59:43.769Z,5.00
2018-10-03T18:02:13.486Z,5.80
2018-10-03T18:04:42.659Z,5.53
2018-10-03T18:07:11.673Z,5.17
2018-10-03T18:09:40.746Z,5.00
2018-10-03T18:12:09.856Z,6.33
2018-10-03T18:14:38.817Z,5.00
2018-10-03T18:17:07.764Z,4.73
2018-10-03T18:19:37.622Z,4.53
2018-10-03T18:22:07.002Z,5.43
2018-10-03T18:24:36.045Z,5.43
2018-10-03T18:27:06.176Z,5.10
2018-10-03T18:29:35.248Z,4.90
2018-10-03T18:32:04.333Z,5.00
2018-10-03T18:34:33.402Z,5.00
2018-10-03T18:37:02.434Z,4.80
2018-10-03T18:39:31.481Z,5.03
2018-10-03T18:42:00.634Z,5.00
2018-10-03T18:44:34.709Z,5.13
2018-10-03T18:47:03.779Z,7.30
2018-10-03T18:49:33.054Z,5.40
2018-10-03T18:52:02.068Z,6.20
2018-10-03T18:54:30.957Z,6.20
2018-10-03T18:57:00.102Z,5.33
2018-10-03T18:59:29.234Z,5.40
2018-10-03T19:01:58.297Z,4.70
2018-10-03T19:04:27.370Z,6.10
2018-10-03T19:06:56.359Z,5.70
2018-10-03T19:09:25.325Z,5.73
2018-10-03T19:11:54.299Z,6.40
2018-10-03T19:14:23.266Z,5.67
2018-10-03T19:16:52.415Z,5.97
2018-10-03T19:19:21.484Z,5.73
2018-10-03T19:21:50.577Z,5.00
2018-10-03T19:24:20.725Z,4.83
2018-10-03T19:26:49.966Z,5.27
2018-10-03T19:29:18.974Z,5.40
2018-10-03T19:31:47.941Z,6.20
2018-10-03T19:34:17.008Z,5.90
2018-10-03T19:36:46.460Z,5.60
2018-10-03T19:39:15.569Z,6.80
2018-10-03T19:41:44.651Z,5.80
2018-10-03T19:44:13.770Z,5.40
2018-10-03T19:46:42.891Z,5.63
2018-10-03T19:49:11.886Z,4.97
2018-10-03T19:51:40.960Z,6.33
2018-10-03T19:54:10.049Z,5.07
2018-10-03T19:56:39.155Z,5.13
2018-10-03T19:59:08.294Z,4.67
2018-10-03T20:01:38.111Z,5.00
2018-10-03T20:04:07.195Z,5.43
2018-10-03T20:06:36.281Z,6.03
2018-10-03T20:09:06.862Z,5.80
2018-10-03T20:11:35.933Z,5.90
2018-10-03T20:14:04.957Z,6.40
2018-10-03T20:16:34.074Z,5.30
2018-10-03T20:19:03.344Z,5.93
2018-10-03T20:21:32.544Z,6.03
2018-10-03T20:24:01.521Z,5.37
2018-10-03T20:26:30.537Z,4.30
2018-10-03T20:28:59.459Z,6.40
2018-10-03T20:31:28.478Z,5.27
2018-10-03T20:33:57.476Z,6.33
2018-10-03T20:36:26.482Z,5.63
2018-10-03T20:38:55.493Z,6.10
2018-10-03T20:41:24.601Z,5.07
2018-10-03T20:43:53.775Z,6.20
2018-10-03T20:46:22.719Z,6.10
2018-10-03T20:48:52.779Z,5.27
2018-10-03T20:51:21.730Z,6.10
2018-10-03T20:53:50.701Z,5.30
2018-10-03T20:56:19.756Z,5.00
2018-10-03T20:58:48.748Z,5.07
2018-10-03T21:01:17.858Z,6.00
2018-10-03T21:03:46.813Z,6.30
2018-10-03T21:06:15.844Z,6.10
2018-10-03T21:08:44.797Z,7.00
2018-10-03T21:11:13.982Z,6.60
2018-10-03T21:13:42.968Z,6.17
2018-10-03T21:16:12.109Z,7.07
2018-10-03T21:18:41.133Z,5.80
2018-10-03T21:21:10.281Z,6.33
2018-10-03T21:23:39.253Z,7.60
2018-10-03T21:26:08.362Z,6.33
2018-10-03T21:28:37.293Z,6.07
2018-10-03T21:31:06.259Z,6.77
2018-10-03T21:33:35.258Z,5.50
2018-10-03T21:36:04.230Z,5.63
2018-10-03T21:38:33.211Z,6.80
2018-10-03T21:41:02.230Z,7.17
2018-10-03T21:43:31.244Z,5.90
2018-10-03T21:46:00.230Z,6.40
2018-10-03T21:48:29.287Z,6.60
2018-10-03T21:50:58.393Z,6.73
2018-10-03T21:53:27.394Z,6.63
2018-10-03T21:55:56.506Z,7.07
2018-10-03T21:58:25.551Z,6.70
2018-10-03T22:00:55.466Z,6.50
2018-10-03T22:03:25.177Z,6.30
2018-10-03T22:05:54.401Z,6.70
2018-10-03T22:08:23.332Z,6.63
2018-10-03T22:10:52.286Z,6.20
2018-10-03T22:13:21.400Z,6.20
2018-10-03T22:15:50.374Z,8.13
2018-10-03T22:18:19.594Z,6.60
2018-10-03T22:20:48.521Z,6.33
2018-10-03T22:23:17.634Z,6.23
2018-10-03T22:25:46.739Z,6.43
2018-10-03T22:28:15.674Z,7.30
2018-10-03T22:30:44.870Z,6.63
2018-10-03T22:33:13.785Z,6.40
2018-10-03T22:35:42.770Z,6.80
2018-10-03T22:38:11.875Z,7.00
2018-10-03T22:40:40.831Z,6.93
2018-10-03T22:43:09.782Z,7.23
2018-10-03T22:45:38.726Z,7.17
2018-10-03T22:48:07.666Z,6.43
2018-10-03T22:50:36.602Z,7.50
2018-10-03T22:53:05.715Z,8.20
2018-10-03T22:55:35.129Z,6.37
2018-10-03T22:58:07.374Z,7.67
2018-10-03T23:00:36.450Z,7.50
2018-10-03T23:03:05.885Z,10.90
2018-10-03T23:05:34.945Z,7.80
2018-10-03T23:08:04.099Z,7.63
2018-10-03T23:10:33.650Z,8.03
2018-10-03T23:13:03.014Z,8.10
2018-10-03T23:15:32.104Z,7.37
2018-10-03T23:18:01.250Z,6.97
2018-10-03T23:20:30.700Z,7.07
2018-10-03T23:22:59.735Z,8.03
2018-10-03T23:25:28.880Z,7.07
2018-10-03T23:27:58.300Z,6.50
2018-10-03T23:30:27.468Z,6.63
2018-10-03T23:32:56.785Z,6.50
2018-10-03T23:35:25.921Z,7.83
2018-10-03T23:37:55.266Z,8.33
2018-10-03T23:40:24.459Z,6.83
2018-10-03T23:42:54.355Z,6.87
2018-10-03T23:45:23.455Z,6.43
2018-10-03T23:47:52.561Z,8.70
2018-10-03T23:50:21.686Z,6.47
2018-10-03T23:52:51.142Z,6.60
2018-10-03T23:55:20.097Z,6.30
2018-10-03T23:57:49.266Z,7.00
